createdAt,value
2018-06-08T00:00:49.489Z,74.40
2018-06-08T00:03:18.898Z,74.40
2018-06-08T00:05:48.271Z,74.40
2018-06-08T00:08:17.766Z,74.40
2018-06-08T00:10:47.210Z,74.60
2018-06-08T00:13:16.696Z,74.60
2018-06-08T00:15:46.135Z,74.60
2018-06-08T00:18:15.975Z,74.60
2018-06-08T00:23:15.000Z,74.70
2018-06-08T00:25:44.996Z,74.70
2018-06-08T00:28:18.797Z,74.70
2018-06-08T00:30:49.334Z,74.80
2018-06-08T00:33:18.672Z,74.90
2018-06-08T00:35:48.650Z,74.90
2018-06-08T00:38:19.894Z,74.90
2018-06-08T00:40:49.972Z,74.90
2018-06-08T00:43:19.354Z,74.90
2018-06-08T00:45:50.270Z,75.00
2018-06-08T00:48:20.435Z,75.00
2018-06-08T00:50:49.792Z,75.00
2018-06-08T00:53:19.179Z,75.10
2018-06-08T00:55:48.512Z,75.10
2018-06-08T00:58:18.680Z,75.20
2018-06-08T01:00:48.822Z,75.20
2018-06-08T01:03:18.179Z,75.30
2018-06-08T01:05:48.559Z,75.30
2018-06-08T01:08:18.359Z,75.30
2018-06-08T01:13:17.513Z,75.40
2018-06-08T01:15:46.857Z,75.50
2018-06-08T01:20:45.951Z,75.50
2018-06-08T01:23:15.431Z,75.50
2018-06-08T01:25:44.923Z,75.40
2018-06-08T01:28:14.289Z,75.30
2018-06-08T01:30:43.640Z,75.20
2018-06-08T01:33:14.009Z,75.10
2018-06-08T01:38:12.485Z,75.20
2018-06-08T01:40:42.176Z,75.00
2018-06-08T01:43:11.556Z,75.30
2018-06-08T01:45:40.984Z,75.40
2018-06-08T01:48:15.585Z,75.40
2018-06-08T01:50:44.992Z,75.30
2018-06-08T01:53:14.976Z,75.30
2018-06-08T01:58:13.550Z,75.40
2018-06-08T02:00:43.022Z,76.20
2018-06-08T02:03:12.466Z,75.60
2018-06-08T02:05:41.858Z,75.70
2018-06-08T02:08:11.858Z,75.70
2018-06-08T02:10:41.322Z,75.80
2018-06-08T02:13:15.681Z,75.90
2018-06-08T02:15:45.108Z,75.90
2018-06-08T02:18:14.575Z,75.80
2018-06-08T02:20:47.991Z,75.70
2018-06-08T02:23:17.935Z,75.70
2018-06-08T02:25:47.441Z,75.60
2018-06-08T02:28:16.829Z,75.60
2018-06-08T02:30:46.296Z,75.70
2018-06-08T02:33:15.837Z,75.70
2018-06-08T02:35:46.060Z,75.80
2018-06-08T02:38:15.493Z,75.80
2018-06-08T02:40:44.894Z,75.90
2018-06-08T02:43:14.256Z,75.80
2018-06-08T02:45:44.534Z,75.80
2018-06-08T02:48:13.977Z,75.80
2018-06-08T02:50:43.866Z,75.80
2018-06-08T02:53:13.295Z,75.90
2018-06-08T02:55:42.723Z,75.90
2018-06-08T02:58:12.209Z,75.80
2018-06-08T03:00:42.193Z,75.80
2018-06-08T03:03:11.666Z,75.80
2018-06-08T03:05:41.184Z,75.60
2018-06-08T03:08:10.635Z,75.60
2018-06-08T03:10:40.032Z,75.40
2018-06-08T03:13:09.485Z,75.30
2018-06-08T03:15:38.816Z,75.20
2018-06-08T03:18:08.267Z,75.10
2018-06-08T03:20:38.331Z,75.00
2018-06-08T03:23:08.422Z,75.00
2018-06-08T03:25:37.848Z,75.00
2018-06-08T03:28:07.217Z,75.00
2018-06-08T03:33:06.815Z,74.90
2018-06-08T03:35:36.317Z,74.80
2018-06-08T03:38:06.236Z,74.70
2018-06-08T03:40:35.675Z,74.80
2018-06-08T03:43:05.412Z,74.70
2018-06-08T03:45:35.533Z,74.80
2018-06-08T03:48:05.604Z,74.90
2018-06-08T03:50:35.056Z,74.90
2018-06-08T03:53:05.032Z,75.00
2018-06-08T03:55:35.354Z,75.00
2018-06-08T03:58:05.695Z,75.10
2018-06-08T04:00:40.487Z,75.30
2018-06-08T04:03:09.954Z,75.30
2018-06-08T04:05:39.926Z,75.30
2018-06-08T04:08:09.278Z,75.40
2018-06-08T04:10:39.925Z,75.40
2018-06-08T04:13:09.996Z,75.50
2018-06-08T04:18:09.898Z,75.60
2018-06-08T04:20:39.241Z,75.60
2018-06-08T04:23:08.571Z,75.70
2018-06-08T04:25:39.338Z,75.70
2018-06-08T04:28:08.800Z,75.70
2018-06-08T04:30:38.205Z,75.90
2018-06-08T04:33:07.666Z,75.90
2018-06-08T04:38:06.240Z,75.90
2018-06-08T04:40:36.257Z,76.00
2018-06-08T04:43:05.793Z,76.10
2018-06-08T04:45:35.212Z,76.20
2018-06-08T04:48:04.633Z,76.20
2018-06-08T04:50:34.067Z,76.30
2018-06-08T04:53:03.509Z,76.40
2018-06-08T04:55:33.007Z,76.50
2018-06-08T04:58:02.498Z,76.50
2018-06-08T05:00:32.384Z,76.70
2018-06-08T05:03:01.730Z,76.60
2018-06-08T05:08:00.137Z,77.10
2018-06-08T05:10:29.547Z,77.30
2018-06-08T05:12:58.892Z,77.50
2018-06-08T05:15:28.344Z,77.70
2018-06-08T05:17:57.713Z,77.90
2018-06-08T05:20:27.164Z,78.10
2018-06-08T05:22:56.661Z,78.10
2018-06-08T05:25:26.020Z,78.30
2018-06-08T05:27:55.492Z,78.30
2018-06-08T05:30:26.662Z,78.40
2018-06-08T05:32:56.716Z,78.30
2018-06-08T05:35:26.162Z,78.40
2018-06-08T05:37:55.603Z,78.30
2018-06-08T05:40:26.200Z,78.40
2018-06-08T05:42:55.659Z,78.40
2018-06-08T05:45:25.235Z,78.30
2018-06-08T05:47:54.608Z,78.20
2018-06-08T05:50:23.981Z,78.10
2018-06-08T05:52:53.418Z,77.90
2018-06-08T05:55:22.769Z,77.90
2018-06-08T06:00:21.861Z,77.60
2018-06-08T06:02:51.400Z,77.50
2018-06-08T06:05:20.899Z,77.40
2018-06-08T06:07:51.229Z,77.30
2018-06-08T06:10:20.611Z,77.20
2018-06-08T06:15:19.099Z,77.10
2018-06-08T06:17:48.485Z,77.00
2018-06-08T06:20:17.973Z,76.90
2018-06-08T06:22:47.849Z,76.80
2018-06-08T06:25:17.233Z,76.70
2018-06-08T06:30:15.837Z,76.60
2018-06-08T06:32:45.297Z,76.50
2018-06-08T06:35:14.675Z,76.40
2018-06-08T06:37:44.284Z,76.30
2018-06-08T06:40:13.668Z,76.20
2018-06-08T06:42:43.550Z,76.10
2018-06-08T06:45:13.366Z,75.90
2018-06-08T06:47:42.801Z,75.60
2018-06-08T06:50:12.201Z,75.50
2018-06-08T06:52:41.655Z,75.30
2018-06-08T06:55:11.106Z,75.30
2018-06-08T06:57:40.476Z,75.10
2018-06-08T07:00:10.366Z,75.00
2018-06-08T07:02:39.927Z,75.00
2018-06-08T07:05:09.444Z,74.70
2018-06-08T07:07:39.458Z,74.70
2018-06-08T07:10:09.959Z,74.70
2018-06-08T07:15:08.586Z,74.80
2018-06-08T07:17:38.008Z,74.80
2018-06-08T07:20:07.435Z,74.80
2018-06-08T07:22:37.515Z,74.80
2018-06-08T07:25:06.909Z,74.90
2018-06-08T07:27:36.289Z,74.80
2018-06-08T07:32:35.513Z,74.50
2018-06-08T07:35:05.047Z,74.30
2018-06-08T07:37:35.133Z,74.30
2018-06-08T07:40:04.663Z,74.20
2018-06-08T07:45:03.754Z,73.70
2018-06-08T07:47:39.947Z,73.30
2018-06-08T07:59:49.381Z,73.10
2018-06-08T08:02:52.579Z,73.50
2018-06-08T08:05:36.175Z,73.60
2018-06-08T08:54:07.190Z,73.50
2018-06-08T08:56:36.727Z,73.50
2018-06-08T08:59:06.187Z,76.00
2018-06-08T09:01:35.612Z,76.00
2018-06-08T09:04:05.118Z,75.90
2018-06-08T09:06:34.679Z,75.30
2018-06-08T09:09:05.240Z,74.60
2018-06-08T09:16:32.966Z,72.30
2018-06-08T09:19:02.849Z,71.50
2018-06-08T09:24:01.363Z,70.00
2018-06-08T09:26:30.733Z,69.80
2018-06-08T09:29:00.072Z,68.70
2018-06-08T09:31:29.544Z,68.00
2018-06-08T09:33:59.382Z,67.60
2018-06-08T09:36:28.735Z,67.10
2018-06-08T09:38:58.746Z,66.40
2018-06-08T09:41:28.075Z,65.90
2018-06-08T09:43:57.414Z,65.50
2018-06-08T09:46:26.868Z,65.20
2018-06-08T09:48:56.321Z,64.90
2018-06-08T09:51:25.760Z,64.50
2018-06-08T09:53:55.123Z,64.10
2018-06-08T09:56:25.242Z,63.70
2018-06-08T09:58:54.574Z,63.30
2018-06-08T10:01:24.026Z,62.80
2018-06-08T10:06:22.434Z,62.20
2018-06-08T10:08:51.798Z,61.90
2018-06-08T10:11:21.280Z,61.70
2018-06-08T10:13:50.668Z,61.50
2018-06-08T10:16:20.051Z,61.30
2018-06-08T10:18:49.385Z,61.00
2018-06-08T10:21:18.783Z,60.60
2018-06-08T10:23:48.132Z,60.00
2018-06-08T10:26:17.567Z,59.60
2018-06-08T10:28:46.911Z,59.20
2018-06-08T10:31:16.443Z,58.80
2018-06-08T10:33:45.775Z,58.50
2018-06-08T10:36:15.183Z,58.10
2018-06-08T10:38:44.658Z,57.80
2018-06-08T10:41:14.073Z,57.30
2018-06-08T10:43:43.460Z,57.10
2018-06-08T10:46:12.888Z,56.70
2018-06-08T10:48:42.280Z,56.10
2018-06-08T10:51:12.140Z,55.50
2018-06-08T10:53:41.540Z,55.10
2018-06-08T10:56:11.458Z,54.90
2018-06-08T10:58:40.809Z,54.90
2018-06-08T11:01:10.203Z,54.60
2018-06-08T11:03:39.602Z,54.30
2018-06-08T11:08:38.022Z,53.70
2018-06-08T11:11:07.463Z,53.40
2018-06-08T11:13:36.868Z,53.00
2018-06-08T11:16:06.308Z,52.60
2018-06-08T11:21:04.740Z,52.00
2018-06-08T11:23:34.725Z,51.70
2018-06-08T11:26:04.054Z,51.60
2018-06-08T11:28:33.425Z,51.60
2018-06-08T11:33:31.879Z,51.70
2018-06-08T11:36:01.258Z,51.60
2018-06-08T11:38:30.637Z,51.40
2018-06-08T11:41:00.107Z,51.00
2018-06-08T11:43:29.447Z,50.70
2018-06-08T11:45:58.848Z,50.50
2018-06-08T11:48:28.181Z,50.50
2018-06-08T11:50:57.552Z,50.30
2018-06-08T11:53:26.907Z,50.00
2018-06-08T11:55:56.423Z,49.70
2018-06-08T11:58:25.760Z,49.50
2018-06-08T12:00:55.135Z,49.20
2018-06-08T12:03:24.501Z,48.90
2018-06-08T12:05:53.860Z,48.60
2018-06-08T12:08:23.198Z,48.40
2018-06-08T12:10:52.824Z,47.90
2018-06-08T12:13:22.180Z,47.30
2018-06-08T12:15:52.472Z,46.70
2018-06-08T12:18:22.550Z,46.20
2018-06-08T12:20:51.903Z,45.80
2018-06-08T12:23:21.270Z,45.30
2018-06-08T12:25:50.657Z,44.30
2018-06-08T12:28:20.091Z,42.80
2018-06-08T12:30:49.484Z,41.10
2018-06-08T12:35:47.933Z,37.50
2018-06-08T12:38:17.345Z,36.20
2018-06-08T12:40:46.683Z,35.50
2018-06-08T12:43:16.143Z,34.80
2018-06-08T12:45:45.611Z,34.30
2018-06-08T12:48:15.025Z,33.70
2018-06-08T12:50:44.961Z,33.30
2018-06-08T12:53:14.427Z,33.00
2018-06-08T12:55:43.981Z,32.70
2018-06-08T12:58:14.783Z,32.20
2018-06-08T13:03:13.345Z,32.20
2018-06-08T13:05:42.883Z,32.00
2018-06-08T13:08:12.934Z,32.00
2018-06-08T13:10:42.395Z,32.20
2018-06-08T13:13:11.839Z,32.30
2018-06-08T13:15:41.506Z,32.50
2018-06-08T13:18:11.038Z,32.50
2018-06-08T13:20:40.422Z,32.50
2018-06-08T13:23:09.917Z,32.60
2018-06-08T13:25:39.536Z,33.00
2018-06-08T13:28:09.304Z,33.30
2018-06-08T13:30:38.676Z,33.10
2018-06-08T13:33:08.189Z,33.20
2018-06-08T13:35:38.651Z,33.20
2018-06-08T13:38:08.174Z,33.20
2018-06-08T13:40:37.496Z,33.00
2018-06-08T13:43:06.896Z,32.80
2018-06-08T13:45:36.380Z,32.50
2018-06-08T13:48:05.762Z,32.10
2018-06-08T13:50:35.294Z,31.50
2018-06-08T13:53:04.645Z,31.30
2018-06-08T13:55:34.047Z,31.00
2018-06-08T13:58:03.512Z,30.80
2018-06-08T14:00:32.836Z,30.50
2018-06-08T14:03:02.423Z,30.10
2018-06-08T14:05:32.170Z,29.90
2018-06-08T14:08:01.505Z,29.50
2018-06-08T14:10:30.950Z,29.20
2018-06-08T14:13:00.296Z,29.10
2018-06-08T14:15:29.733Z,28.90
2018-06-08T14:17:59.036Z,28.90
2018-06-08T14:20:28.361Z,28.70
2018-06-08T14:22:57.712Z,28.40
2018-06-08T14:25:27.034Z,28.00
2018-06-08T14:27:56.408Z,27.80
2018-06-08T14:30:26.202Z,27.60
2018-06-08T14:32:56.023Z,27.20
2018-06-08T14:35:25.582Z,26.70
2018-06-08T14:37:56.173Z,26.10
2018-06-08T14:40:25.613Z,25.60
2018-06-08T14:42:54.990Z,25.20
2018-06-08T14:45:24.392Z,25.10
2018-06-08T14:47:54.306Z,25.00
2018-06-08T14:50:23.676Z,25.10
2018-06-08T14:52:53.134Z,25.40
2018-06-08T14:55:24.407Z,25.70
2018-06-08T14:57:54.835Z,26.10
2018-06-08T15:00:24.845Z,26.50
2018-06-08T15:02:56.234Z,27.20
2018-06-08T15:05:25.738Z,29.00
2018-06-08T15:07:55.793Z,31.30
2018-06-08T15:10:25.154Z,33.20
2018-06-08T15:12:54.703Z,35.00
2018-06-08T15:15:24.518Z,36.00
2018-06-08T15:17:53.868Z,38.20
2018-06-08T15:20:23.331Z,38.60
2018-06-08T15:22:52.787Z,39.00
2018-06-08T15:25:22.565Z,38.90
2018-06-08T15:27:52.053Z,38.40
2018-06-08T15:32:52.135Z,39.00
2018-06-08T15:35:21.689Z,38.30
2018-06-08T15:37:51.119Z,38.10
2018-06-08T15:40:20.714Z,37.90
2018-06-08T15:42:50.525Z,37.80
2018-06-08T15:45:20.367Z,38.10
2018-06-08T15:47:50.894Z,39.50
2018-06-08T15:50:20.356Z,40.80
2018-06-08T15:52:49.739Z,42.00
2018-06-08T15:55:19.433Z,43.00
2018-06-08T15:57:48.818Z,43.90
2018-06-08T16:00:18.330Z,44.80
2018-06-08T16:02:48.708Z,45.60
2018-06-08T16:05:19.449Z,46.50
2018-06-08T16:07:48.844Z,47.70
2018-06-08T16:10:18.216Z,48.60
2018-06-08T16:12:48.270Z,49.20
2018-06-08T16:15:18.246Z,49.10
2018-06-08T16:17:47.651Z,49.20
2018-06-08T16:20:25.223Z,49.50
2018-06-08T16:22:54.637Z,50.00
2018-06-08T16:25:24.104Z,50.10
2018-06-08T16:27:53.488Z,50.40
2018-06-08T16:30:22.876Z,50.50
2018-06-08T16:32:52.217Z,51.10
2018-06-08T16:35:21.660Z,50.40
2018-06-08T16:37:51.098Z,50.40
2018-06-08T16:40:20.519Z,50.10
2018-06-08T16:42:49.880Z,49.70
2018-06-08T16:45:20.283Z,49.40
2018-06-08T16:47:50.091Z,49.20
2018-06-08T16:50:19.465Z,49.00
2018-06-08T16:52:48.823Z,48.90
2018-06-08T16:55:19.179Z,48.60
2018-06-08T16:57:48.568Z,48.30
2018-06-08T17:02:48.827Z,47.70
2018-06-08T17:05:19.234Z,47.30
2018-06-08T17:07:48.746Z,47.00
2018-06-08T17:10:19.773Z,46.50
2018-06-08T17:12:49.592Z,45.90
2018-06-08T17:15:19.594Z,45.20
2018-06-08T17:17:48.925Z,44.50
2018-06-08T17:20:18.288Z,44.00
2018-06-08T17:22:48.154Z,43.50
2018-06-08T17:25:17.502Z,43.20
2018-06-08T17:27:47.452Z,43.10
2018-06-08T17:30:16.934Z,43.30
2018-06-08T17:32:46.386Z,43.80
2018-06-08T17:35:15.750Z,44.10
2018-06-08T17:37:45.322Z,44.50
2018-06-08T17:40:15.785Z,45.10
2018-06-08T17:42:45.349Z,45.60
2018-06-08T17:45:15.251Z,46.10
2018-06-08T17:47:44.710Z,46.50
2018-06-08T17:50:14.929Z,46.70
2018-06-08T17:52:44.405Z,47.10
2018-06-08T17:55:13.779Z,47.50
2018-06-08T17:57:43.863Z,47.90
2018-06-08T18:00:18.459Z,48.40
2018-06-08T18:02:47.886Z,49.00
2018-06-08T18:05:19.279Z,49.60
2018-06-08T18:07:49.975Z,50.30
2018-06-08T18:10:19.829Z,51.40
2018-06-08T18:12:49.358Z,51.10
2018-06-08T18:15:20.965Z,51.50
2018-06-08T18:17:50.991Z,52.00
2018-06-08T18:20:20.830Z,52.40
2018-06-08T18:22:50.206Z,52.90
2018-06-08T18:25:19.908Z,53.30
2018-06-08T18:27:50.193Z,53.50
2018-06-08T18:30:26.898Z,53.40
2018-06-08T18:32:56.347Z,53.40
2018-06-08T18:35:26.548Z,53.40
2018-06-08T18:37:55.941Z,53.50
2018-06-08T18:40:28.164Z,53.60
2018-06-08T18:42:57.605Z,53.80
2018-06-08T18:45:27.083Z,53.90
2018-06-08T18:47:57.295Z,54.00
2018-06-08T18:50:27.147Z,54.00
2018-06-08T18:52:56.566Z,54.10
2018-06-08T18:55:26.077Z,54.40
2018-06-08T18:57:55.470Z,54.80
2018-06-08T19:00:24.834Z,54.90
2018-06-08T19:02:54.304Z,54.90
2018-06-08T19:05:23.765Z,55.00
2018-06-08T19:07:53.084Z,55.00
2018-06-08T19:10:23.090Z,55.00
2018-06-08T19:12:52.538Z,55.00
2018-06-08T19:15:23.332Z,55.00
2018-06-08T19:17:53.226Z,55.10
2018-06-08T19:20:22.690Z,55.20
2018-06-08T19:22:52.058Z,55.30
2018-06-08T19:25:21.980Z,55.50
2018-06-08T19:27:52.607Z,55.60
2018-06-08T19:30:23.759Z,55.80
2018-06-08T19:32:54.431Z,56.00
2018-06-08T19:35:24.590Z,56.10
2018-06-08T19:37:58.289Z,56.40
2018-06-08T19:40:28.255Z,56.50
2018-06-08T19:42:57.643Z,56.70
2018-06-08T19:45:28.145Z,56.90
2018-06-08T19:47:57.741Z,57.00
2018-06-08T19:50:28.538Z,57.30
2018-06-08T19:52:57.908Z,57.50
2018-06-08T19:55:28.127Z,57.70
2018-06-08T19:57:58.232Z,57.80
2018-06-08T20:00:27.733Z,58.10
2018-06-08T20:02:57.135Z,58.20
2018-06-08T20:05:26.588Z,58.40
2018-06-08T20:07:56.177Z,58.50
2018-06-08T20:10:25.554Z,58.70
2018-06-08T20:12:54.959Z,58.90
2018-06-08T20:15:24.398Z,59.00
2018-06-08T20:17:54.052Z,59.20
2018-06-08T20:20:23.536Z,59.30
2018-06-08T20:25:21.920Z,59.60
2018-06-08T20:27:51.532Z,59.90
2018-06-08T20:30:20.976Z,59.90
2018-06-08T20:32:50.378Z,60.00
2018-06-08T20:35:19.834Z,60.10
2018-06-08T20:37:49.402Z,60.40
2018-06-08T20:40:18.920Z,60.50
2018-06-08T20:42:48.324Z,60.80
2018-06-08T20:45:17.770Z,60.90
2018-06-08T20:50:16.449Z,61.30
2018-06-08T20:52:47.254Z,61.50
2018-06-08T20:55:16.645Z,61.60
2018-06-08T20:57:57.294Z,61.80
2018-06-08T21:00:27.008Z,61.90
2018-06-08T21:02:56.595Z,62.00
2018-06-08T21:10:24.289Z,62.40
2018-06-08T21:15:22.979Z,62.60
2018-06-08T21:17:53.115Z,62.60
2018-06-08T21:20:22.639Z,62.70
2018-06-08T21:22:51.985Z,62.80
2018-06-08T21:25:21.521Z,62.90
2018-06-08T21:30:20.221Z,62.90
2018-06-08T21:32:50.571Z,62.80
2018-06-08T21:35:20.118Z,62.90
2018-06-08T21:37:49.840Z,62.90
2018-06-08T21:40:19.478Z,62.80
2018-06-08T21:42:49.456Z,62.80
2018-06-08T21:45:18.849Z,62.90
2018-06-08T21:47:48.366Z,63.10
2018-06-08T21:50:17.774Z,63.00
2018-06-08T21:52:47.295Z,63.10
2018-06-08T21:55:16.728Z,63.20
2018-06-08T21:57:46.160Z,63.30
2018-06-08T22:00:15.663Z,63.40
2018-06-08T22:02:45.113Z,63.50
2018-06-08T22:07:43.775Z,63.70
2018-06-08T22:10:13.738Z,63.70
2018-06-08T22:12:43.151Z,63.80
2018-06-08T22:17:41.755Z,63.80
2018-06-08T22:20:11.270Z,64.00
2018-06-08T22:22:40.717Z,64.10
2018-06-08T22:25:10.126Z,64.20
2018-06-08T22:27:39.588Z,64.20
2018-06-08T22:30:09.133Z,64.30
2018-06-08T22:32:39.196Z,64.30
2018-06-08T22:35:08.903Z,64.40
2018-06-08T22:37:38.301Z,64.40
2018-06-08T22:40:07.983Z,64.50
2018-06-08T22:42:37.355Z,64.60
2018-06-08T22:45:06.841Z,64.70
2018-06-08T22:47:36.214Z,64.90
2018-06-08T22:50:05.769Z,64.80
2018-06-08T22:52:35.291Z,65.00
2018-06-08T22:55:04.703Z,65.20
2018-06-08T22:57:34.851Z,65.10
2018-06-08T23:00:04.321Z,65.30
2018-06-08T23:02:33.839Z,65.30
2018-06-08T23:05:03.169Z,66.10
2018-06-08T23:07:32.510Z,65.40
2018-06-08T23:10:02.710Z,65.50
2018-06-08T23:12:33.572Z,65.40
2018-06-08T23:15:03.050Z,65.50
2018-06-08T23:17:33.042Z,65.60
2018-06-08T23:20:02.576Z,65.70
2018-06-08T23:22:33.584Z,65.70
2018-06-08T23:27:32.090Z,65.80
2018-06-08T23:30:01.609Z,65.80
2018-06-08T23:32:31.543Z,65.80
2018-06-08T23:35:01.006Z,66.00
2018-06-08T23:37:30.469Z,66.10
2018-06-08T23:40:00.431Z,66.20
2018-06-08T23:42:29.832Z,66.20
2018-06-08T23:47:28.282Z,66.50
2018-06-08T23:49:57.658Z,66.50
2018-06-08T23:52:27.171Z,67.50
2018-06-08T23:54:56.918Z,66.60
2018-06-08T23:57:26.477Z,66.70
2018-06-08T23:59:56.086Z,66.70
